Time,TemperatureF,DewpointF,PressureIn,WindDirection,WindDirectionDegrees,WindSpeedMPH,WindSpeedGustMPH,Humidity,HourlyPrecipIn,Conditions,Clouds,dailyrainin,SoftwareType,DateUTC
2013-03-13 00:12:00,36.9,30.0,30.00,WNW,284,4.0,5.0,75,0.00,,,0.00,weatherlink.com 1.10,2013-03-13 04:12:00,
2013-03-13 00:27:00,36.5,29.0,30.00,SW,233,3.0,3.0,75,0.00,,,0.00,weatherlink.com 1.10,2013-03-13 04:27:00,
2013-03-13 00:42:00,36.0,29.0,30.01,WSW,246,2.0,4.0,76,0.00,,,0.00,weatherlink.com 1.10,2013-03-13 04:42:00,
2013-03-13 00:57:00,35.8,29.0,30.00,WSW,255,3.0,3.0,75,0.00,,,0.00,weatherlink.com 1.10,2013-03-13 04:57:00,
2013-03-13 01:12:00,35.9,28.0,30.00,WSW,257,0.0,2.0,74,0.00,,,0.00,weatherlink.com 1.10,2013-03-13 05:12:00,
2013-03-13 01:27:00,35.9,29.0,29.99,SSE,166,0.0,2.0,76,0.00,,,0.00,weatherlink.com 1.10,2013-03-13 05:27:00,
2013-03-13 01:42:00,35.9,29.0,29.99,West,263,0.0,1.0,76,0.00,,,0.00,weatherlink.com 1.10,2013-03-13 05:42:00,
2013-03-13 01:57:00,36.0,29.0,29.99,SSW,211,0.0,1.0,76,0.00,,,0.00,weatherlink.com 1.10,2013-03-13 05:57:00,
2013-03-13 02:12:00,35.9,28.0,29.99,SW,214,0.0,5.0,74,0.00,,,0.00,weatherlink.com 1.10,2013-03-13 06:12:00,
2013-03-13 02:27:00,35.9,28.0,29.98,SW,216,2.0,3.0,74,0.00,,,0.00,weatherlink.com 1.10,2013-03-13 06:27:00,
2013-03-13 02:42:00,35.8,28.0,29.98,WSW,248,1.0,4.0,74,0.00,,,0.00,weatherlink.com 1.10,2013-03-13 06:42:00,
2013-03-13 02:57:00,35.5,28.0,29.98,SW,224,3.0,3.0,75,0.00,,,0.00,weatherlink.com 1.10,2013-03-13 06:57:00,
2013-03-13 03:12:00,35.6,28.0,29.97,SSE,165,1.0,5.0,74,0.00,,,0.00,weatherlink.com 1.10,2013-03-13 07:12:00,
2013-03-13 03:27:00,35.6,28.0,29.96,West,278,3.0,5.0,75,0.00,,,0.00,weatherlink.com 1.10,2013-03-13 07:27:00,
2013-03-13 03:42:00,35.8,29.0,29.96,West,271,4.0,6.0,76,0.00,,,0.00,weatherlink.com 1.10,2013-03-13 07:42:00,
2013-03-13 03:57:00,35.7,29.0,29.96,WSW,255,4.0,8.0,76,0.00,,,0.00,weatherlink.com 1.10,2013-03-13 07:57:00,
2013-03-13 04:12:00,35.3,29.0,29.95,SW,217,3.0,8.0,77,0.00,,,0.00,weatherlink.com 1.10,2013-03-13 08:12:00,
2013-03-13 04:27:00,35.0,29.0,29.95,West,273,4.0,8.0,79,0.00,,,0.00,weatherlink.com 1.10,2013-03-13 08:27:00,
2013-03-13 04:42:00,34.6,29.0,29.94,West,270,2.0,3.0,79,0.00,,,0.00,weatherlink.com 1.10,2013-03-13 08:42:00,
2013-03-13 04:57:00,34.4,29.0,29.95,SW,235,2.0,5.0,80,0.00,,,0.00,weatherlink.com 1.10,2013-03-13 08:57:00,
2013-03-13 05:12:00,34.3,29.0,29.95,WSW,242,1.0,4.0,82,0.00,,,0.00,weatherlink.com 1.10,2013-03-13 09:12:00,
2013-03-13 05:27:00,33.8,29.0,29.94,SW,231,3.0,6.0,83,0.00,,,0.00,weatherlink.com 1.10,2013-03-13 09:27:00,
2013-03-13 05:42:00,33.7,29.0,29.95,SW,221,2.0,8.0,83,0.00,,,0.00,weatherlink.com 1.10,2013-03-13 09:42:00,
2013-03-13 05:57:00,33.8,29.0,29.94,WSW,248,6.0,7.0,83,0.00,,,0.00,weatherlink.com 1.10,2013-03-13 09:57:00,
2013-03-13 06:12:00,33.9,29.0,29.95,SW,235,5.0,9.0,83,0.00,,,0.00,weatherlink.com 1.10,2013-03-13 10:12:00,
2013-03-13 06:27:00,34.0,29.0,29.94,SSW,198,5.0,8.0,83,0.00,,,0.00,weatherlink.com 1.10,2013-03-13 10:27:00,
2013-03-13 06:42:00,33.9,29.0,29.94,WSW,258,6.0,8.0,83,0.00,,,0.00,weatherlink.com 1.10,2013-03-13 10:42:00,
2013-03-13 06:58:00,33.9,29.0,29.94,SW,224,5.0,9.0,83,0.00,,,0.00,weatherlink.com 1.10,2013-03-13 10:58:00,
2013-03-13 07:13:00,33.8,30.0,29.94,South,181,3.0,6.0,84,0.00,,,0.00,weatherlink.com 1.10,2013-03-13 11:13:00,
2013-03-13 07:28:00,33.9,30.0,29.94,WSW,257,4.0,11.0,84,0.00,,,0.00,weatherlink.com 1.10,2013-03-13 11:28:00,
2013-03-13 07:43:00,33.9,30.0,29.94,WNW,282,7.0,7.0,84,0.00,,,0.00,weatherlink.com 1.10,2013-03-13 11:43:00,
2013-03-13 07:58:00,33.2,30.0,29.95,SW,236,6.0,15.0,88,0.00,,,0.00,weatherlink.com 1.10,2013-03-13 11:58:00,
2013-03-13 08:13:00,32.4,30.0,29.96,West,269,6.0,9.0,90,0.00,,,0.00,weatherlink.com 1.10,2013-03-13 12:13:00,
2013-03-13 08:28:00,32.7,29.0,29.96,West,262,4.0,9.0,87,0.00,,,0.00,weatherlink.com 1.10,2013-03-13 12:28:00,
2013-03-13 08:43:00,32.8,29.0,29.97,WSW,242,3.0,7.0,87,0.00,,,0.00,weatherlink.com 1.10,2013-03-13 12:43:00,
2013-03-13 08:58:00,33.0,29.0,29.97,SW,236,3.0,9.0,85,0.00,,,0.00,weatherlink.com 1.10,2013-03-13 12:58:00,
2013-03-13 09:13:00,33.2,29.0,29.97,West,274,2.0,6.0,83,0.00,,,0.00,weatherlink.com 1.10,2013-03-13 13:13:00,
2013-03-13 09:28:00,33.4,28.0,29.97,WSW,257,4.0,9.0,81,0.00,,,0.00,weatherlink.com 1.10,2013-03-13 13:28:00,
2013-03-13 09:43:00,33.5,28.0,29.97,West,278,7.0,9.0,80,0.00,,,0.00,weatherlink.com 1.10,2013-03-13 13:43:00,
2013-03-13 09:58:00,33.6,27.0,29.98,WSW,256,6.0,12.0,78,0.00,,,0.00,weatherlink.com 1.10,2013-03-13 13:58:00,
2013-03-13 10:13:00,33.7,28.0,29.98,WNW,285,5.0,12.0,78,0.00,,,0.00,weatherlink.com 1.10,2013-03-13 14:13:00,
2013-03-13 10:28:00,33.7,27.0,29.98,WNW,289,6.0,10.0,77,0.00,,,0.00,weatherlink.com 1.10,2013-03-13 14:28:00,
2013-03-13 10:43:00,33.3,27.0,29.98,West,272,5.0,12.0,76,0.00,,,0.00,weatherlink.com 1.10,2013-03-13 14:43:00,
2013-03-13 10:58:00,33.2,28.0,29.98,West,280,3.0,13.0,81,0.00,,,0.00,weatherlink.com 1.10,2013-03-13 14:58:00,
2013-03-13 11:13:00,33.1,28.0,29.98,WNW,294,5.0,11.0,80,0.00,,,0.00,weatherlink.com 1.10,2013-03-13 15:13:00,
2013-03-13 11:28:00,32.9,28.0,29.98,West,277,6.0,11.0,81,0.00,,,0.00,weatherlink.com 1.10,2013-03-13 15:28:00,
2013-03-13 11:43:00,31.0,28.0,29.99,West,281,11.0,13.0,88,0.00,,,0.00,weatherlink.com 1.10,2013-03-13 15:43:00,
2013-03-13 11:58:00,30.3,28.0,30.00,West,278,5.0,13.0,92,0.00,,,0.00,weatherlink.com 1.10,2013-03-13 15:58:00,
2013-03-13 12:13:00,30.8,29.0,29.99,West,270,9.0,12.0,92,0.00,,,0.00,weatherlink.com 1.10,2013-03-13 16:13:00,
2013-03-13 12:28:00,31.6,29.0,29.99,WNW,285,8.0,12.0,88,0.00,,,0.00,weatherlink.com 1.10,2013-03-13 16:28:00,
2013-03-13 12:43:00,32.9,29.0,29.99,WNW,289,7.0,12.0,84,0.00,,,0.00,weatherlink.com 1.10,2013-03-13 16:43:00,
2013-03-13 12:58:00,33.5,29.0,29.99,WNW,283,11.0,20.0,83,0.00,,,0.00,weatherlink.com 1.10,2013-03-13 16:58:00,
2013-03-13 13:13:00,33.2,29.0,29.99,West,273,6.0,11.0,83,0.00,,,0.00,weatherlink.com 1.10,2013-03-13 17:13:00,
2013-03-13 13:28:00,33.6,27.0,29.99,WNW,284,12.0,15.0,78,0.00,,,0.00,weatherlink.com 1.10,2013-03-13 17:28:00,
2013-03-13 13:43:00,33.1,28.0,30.00,West,264,14.0,15.0,80,0.00,,,0.00,weatherlink.com 1.10,2013-03-13 17:43:00,
2013-03-13 13:58:00,34.0,26.0,30.00,WSW,256,15.0,16.0,72,0.00,,,0.00,weatherlink.com 1.10,2013-03-13 17:58:00,
2013-03-13 14:13:00,34.7,23.0,30.00,WSW,250,13.0,24.0,63,0.00,,,0.00,weatherlink.com 1.10,2013-03-13 18:13:00,
2013-03-13 14:28:00,33.4,26.0,30.01,WNW,294,11.0,28.0,75,0.01,,,0.01,weatherlink.com 1.10,2013-03-13 18:28:00,
2013-03-13 14:43:00,31.9,26.0,30.01,WNW,284,10.0,19.0,80,0.01,,,0.01,weatherlink.com 1.10,2013-03-13 18:43:00,
2013-03-13 14:58:00,31.6,26.0,30.01,West,281,11.0,14.0,79,0.01,,,0.01,weatherlink.com 1.10,2013-03-13 18:58:00,
2013-03-13 15:13:00,32.7,25.0,30.01,West,281,8.0,16.0,73,0.01,,,0.01,weatherlink.com 1.10,2013-03-13 19:13:00,
2013-03-13 15:28:00,31.2,25.0,30.02,WNW,288,12.0,21.0,78,0.00,,,0.01,weatherlink.com 1.10,2013-03-13 19:28:00,
2013-03-13 15:43:00,31.0,24.0,30.01,West,277,8.0,14.0,74,0.00,,,0.01,weatherlink.com 1.10,2013-03-13 19:43:00,
2013-03-13 15:58:00,32.8,23.0,30.01,West,262,14.0,16.0,66,0.00,,,0.01,weatherlink.com 1.10,2013-03-13 19:58:00,
2013-03-13 16:13:00,33.1,22.0,30.02,WSW,257,12.0,20.0,64,0.00,,,0.01,weatherlink.com 1.10,2013-03-13 20:13:00,
2013-03-13 16:28:00,30.8,25.0,30.03,West,260,10.0,20.0,79,0.00,,,0.01,weatherlink.com 1.10,2013-03-13 20:28:00,
2013-03-13 16:43:00,32.4,23.0,30.03,WSW,257,12.0,17.0,68,0.00,,,0.01,weatherlink.com 1.10,2013-03-13 20:43:00,
2013-03-13 16:58:00,33.1,22.0,30.03,West,277,14.0,16.0,65,0.00,,,0.01,weatherlink.com 1.10,2013-03-13 20:58:00,
2013-03-13 17:13:00,33.2,24.0,30.05,West,274,16.0,21.0,69,0.00,,,0.01,weatherlink.com 1.10,2013-03-13 21:13:00,
2013-03-13 17:29:00,32.1,25.0,30.05,West,274,7.0,14.0,74,0.00,,,0.01,weatherlink.com 1.10,2013-03-13 21:29:00,
2013-03-13 17:44:00,31.4,25.0,30.07,NW,310,7.0,17.0,77,0.00,,,0.01,weatherlink.com 1.10,2013-03-13 21:44:00,
2013-03-13 17:59:00,30.4,23.0,30.07,WNW,282,7.0,16.0,75,0.00,,,0.01,weatherlink.com 1.10,2013-03-13 21:59:00,
2013-03-13 18:14:00,31.1,21.0,30.08,West,278,15.0,25.0,66,0.00,,,0.01,weatherlink.com 1.10,2013-03-13 22:14:00,
2013-03-13 18:29:00,31.4,21.0,30.08,West,277,10.0,21.0,65,0.00,,,0.01,weatherlink.com 1.10,2013-03-13 22:29:00,
2013-03-13 18:44:00,31.3,20.0,30.09,West,274,12.0,22.0,64,0.00,,,0.01,weatherlink.com 1.10,2013-03-13 22:44:00,
2013-03-13 18:59:00,31.5,21.0,30.09,WNW,287,10.0,17.0,64,0.00,,,0.01,weatherlink.com 1.10,2013-03-13 22:59:00,
2013-03-13 19:14:00,31.4,19.0,30.10,WNW,289,11.0,19.0,61,0.00,,,0.01,weatherlink.com 1.10,2013-03-13 23:14:00,
2013-03-13 19:29:00,31.4,19.0,30.10,WNW,285,18.0,18.0,60,0.00,,,0.01,weatherlink.com 1.10,2013-03-13 23:29:00,
2013-03-13 19:44:00,31.2,19.0,30.11,WSW,257,13.0,18.0,61,0.00,,,0.01,weatherlink.com 1.10,2013-03-13 23:44:00,
2013-03-13 19:59:00,30.8,20.0,30.12,West,277,15.0,17.0,64,0.00,,,0.01,weatherlink.com 1.10,2013-03-13 23:59:00,
2013-03-13 20:14:00,30.4,21.0,30.12,West,274,10.0,19.0,68,0.00,,,0.01,weatherlink.com 1.10,2013-03-14 00:14:00,
2013-03-13 20:29:00,30.0,22.0,30.13,West,276,12.0,20.0,72,0.00,,,0.01,weatherlink.com 1.10,2013-03-14 00:29:00,
2013-03-13 20:44:00,30.0,22.0,30.13,West,277,9.0,15.0,73,0.00,,,0.01,weatherlink.com 1.10,2013-03-14 00:44:00,
2013-03-13 20:59:00,30.1,23.0,30.13,West,270,10.0,14.0,75,0.00,,,0.01,weatherlink.com 1.10,2013-03-14 00:59:00,
2013-03-13 21:14:00,30.0,22.0,30.13,West,278,12.0,16.0,72,0.00,,,0.01,weatherlink.com 1.10,2013-03-14 01:14:00,
2013-03-13 21:29:00,30.2,22.0,30.13,West,270,10.0,20.0,71,0.00,,,0.01,weatherlink.com 1.10,2013-03-14 01:29:00,
2013-03-13 21:44:00,30.0,20.0,30.13,West,265,12.0,19.0,67,0.00,,,0.01,weatherlink.com 1.10,2013-03-14 01:44:00,
2013-03-13 21:59:00,29.9,21.0,30.14,West,277,10.0,17.0,69,0.00,,,0.01,weatherlink.com 1.10,2013-03-14 01:59:00,
2013-03-13 22:14:00,29.8,20.0,30.13,West,277,12.0,17.0,67,0.00,,,0.01,weatherlink.com 1.10,2013-03-14 02:14:00,
2013-03-13 22:29:00,29.9,20.0,30.14,West,274,15.0,22.0,67,0.00,,,0.01,weatherlink.com 1.10,2013-03-14 02:29:00,
2013-03-13 22:44:00,30.0,21.0,30.15,WNW,287,11.0,16.0,68,0.00,,,0.01,weatherlink.com 1.10,2013-03-14 02:44:00,
2013-03-13 22:59:00,29.7,20.0,30.15,WNW,285,10.0,16.0,68,0.00,,,0.01,weatherlink.com 1.10,2013-03-14 02:59:00,
2013-03-13 23:14:00,29.7,22.0,30.16,West,278,12.0,16.0,72,0.00,,,0.01,weatherlink.com 1.10,2013-03-14 03:14:00,
2013-03-13 23:29:00,29.2,21.0,30.16,West,269,12.0,16.0,70,0.00,,,0.01,weatherlink.com 1.10,2013-03-14 03:29:00,
2013-03-13 23:44:00,29.3,22.0,30.16,West,274,9.0,16.0,73,0.00,,,0.00,weatherlink.com 1.10,2013-03-14 03:44:00,
2013-03-13 23:59:00,-999.0,-99.9,30.16,North,-999,-999.0,-999.0,-999,0.00,,,0.00,weatherlink.com 1.10,2013-03-14 03:59:00,